createdAt,value
2022-08-23T00:02:22.819Z,1.52
2022-08-23T00:05:07.542Z,1.35
2022-08-23T00:07:42.624Z,1.40
2022-08-23T00:10:13.678Z,1.42
2022-08-23T00:12:43.555Z,1.42
2022-08-23T00:15:15.212Z,1.63
2022-08-23T00:17:44.585Z,1.40
2022-08-23T00:20:15.467Z,1.20
2022-08-23T00:22:42.916Z,1.42
2022-08-23T00:25:13.885Z,1.45
2022-08-23T00:27:40.693Z,1.40
2022-08-23T00:30:10.754Z,1.38
2022-08-23T00:32:39.075Z,1.50
2022-08-23T00:35:09.300Z,1.30
2022-08-23T00:37:36.609Z,1.38
2022-08-23T00:40:08.448Z,1.20
2022-08-23T00:43:07.859Z,1.40
2022-08-23T00:46:11.207Z,1.48
2022-08-23T00:48:39.705Z,1.48
2022-08-23T00:51:18.274Z,1.40
2022-08-23T00:53:53.938Z,1.40
2022-08-23T00:56:24.958Z,1.30
2022-08-23T00:58:53.254Z,1.45
2022-08-23T01:01:20.006Z,1.08
2022-08-23T01:04:04.066Z,1.80
2022-08-23T01:06:34.427Z,1.40
2022-08-23T01:09:13.042Z,1.30
2022-08-23T01:11:50.994Z,1.60
2022-08-23T01:14:26.931Z,1.55
2022-08-23T01:17:05.499Z,1.42
2022-08-23T01:19:46.669Z,1.40
2022-08-23T01:22:38.100Z,1.40
2022-08-23T01:25:10.361Z,1.35
2022-08-23T01:27:38.991Z,1.33
2022-08-23T01:30:10.138Z,1.63
2022-08-23T01:32:46.367Z,1.85
2022-08-23T01:35:13.996Z,1.50
2022-08-23T01:37:42.007Z,1.60
2022-08-23T01:40:09.350Z,1.40
2022-08-23T01:42:36.478Z,1.48
2022-08-23T01:45:03.718Z,1.38
2022-08-23T01:47:31.738Z,1.70
2022-08-23T01:49:58.423Z,1.60
2022-08-23T01:52:25.078Z,1.42
2022-08-23T01:54:51.747Z,1.73
2022-08-23T01:57:18.486Z,1.40
2022-08-23T01:59:45.254Z,1.73
2022-08-23T02:02:12.192Z,1.58
2022-08-23T02:04:38.862Z,1.50
2022-08-23T02:07:05.575Z,1.58
2022-08-23T02:09:32.280Z,1.85
2022-08-23T02:12:01.351Z,1.48
2022-08-23T02:14:28.041Z,1.20
2022-08-23T02:17:04.496Z,1.27
2022-08-23T02:19:34.224Z,1.63
2022-08-23T02:22:01.215Z,1.38
2022-08-23T02:24:27.873Z,1.42
2022-08-23T02:26:57.979Z,1.58
2022-08-23T02:29:26.710Z,1.52
2022-08-23T02:31:54.067Z,1.65
2022-08-23T02:34:23.263Z,1.60
2022-08-23T02:36:52.960Z,1.30
2022-08-23T02:39:22.972Z,2.13
2022-08-23T02:41:50.163Z,1.63
2022-08-23T02:44:16.870Z,1.60
2022-08-23T02:46:43.704Z,1.60
2022-08-23T02:49:11.196Z,1.52
2022-08-23T02:51:39.565Z,1.50
2022-08-23T02:54:06.959Z,1.48
2022-08-23T02:56:34.423Z,1.60
2022-08-23T02:59:01.360Z,1.70
2022-08-23T03:01:38.803Z,1.73
2022-08-23T03:04:10.367Z,1.73
2022-08-23T03:06:38.602Z,1.65
2022-08-23T03:09:07.231Z,1.98
2022-08-23T03:11:34.347Z,1.67
2022-08-23T03:14:01.904Z,2.00
2022-08-23T03:16:29.007Z,1.60
2022-08-23T03:18:55.847Z,1.77
2022-08-23T03:21:22.964Z,1.70
2022-08-23T03:23:55.607Z,1.65
2022-08-23T03:26:22.312Z,1.45
2022-08-23T03:28:49.016Z,1.80
2022-08-23T03:31:16.932Z,1.92
2022-08-23T03:33:43.776Z,1.70
2022-08-23T03:36:11.987Z,2.05
2022-08-23T03:38:39.948Z,1.60
2022-08-23T03:41:08.121Z,1.70
2022-08-23T03:43:36.192Z,1.63
2022-08-23T03:46:04.277Z,1.90
2022-08-23T03:48:31.160Z,1.67
2022-08-23T03:50:59.130Z,2.10
2022-08-23T03:53:25.893Z,1.48
2022-08-23T03:55:59.673Z,1.80
2022-08-23T03:58:27.838Z,1.80
2022-08-23T04:00:55.149Z,1.70
2022-08-23T04:03:21.851Z,2.05
2022-08-23T04:05:48.493Z,1.75
2022-08-23T04:08:15.144Z,2.03
2022-08-23T04:10:47.722Z,1.83
2022-08-23T04:13:14.397Z,1.70
2022-08-23T04:15:43.487Z,1.92
2022-08-23T04:18:10.581Z,2.10
2022-08-23T04:20:37.898Z,1.73
2022-08-23T04:23:05.557Z,2.00
2022-08-23T04:25:35.503Z,1.85
2022-08-23T04:28:04.072Z,1.98
2022-08-23T04:30:32.848Z,1.95
2022-08-23T04:32:59.829Z,2.10
2022-08-23T04:35:28.619Z,1.92
2022-08-23T04:37:55.274Z,1.92
2022-08-23T04:40:40.425Z,1.83
2022-08-23T04:43:08.596Z,1.98
2022-08-23T04:45:38.962Z,1.85
2022-08-23T04:48:06.536Z,1.73
2022-08-23T04:50:40.159Z,2.03
2022-08-23T04:53:07.300Z,2.30
2022-08-23T04:55:36.507Z,2.00
2022-08-23T04:58:04.568Z,1.98
2022-08-23T05:00:31.452Z,2.10
2022-08-23T05:02:58.134Z,2.20
2022-08-23T05:05:25.185Z,2.00
2022-08-23T05:07:51.842Z,1.90
2022-08-23T05:10:18.984Z,2.50
2022-08-23T05:12:47.127Z,2.03
2022-08-23T05:15:14.173Z,1.90
2022-08-23T05:17:40.836Z,2.00
2022-08-23T05:20:11.296Z,1.90
2022-08-23T05:22:41.337Z,2.15
2022-08-23T05:25:09.248Z,1.80
2022-08-23T05:27:36.570Z,2.00
2022-08-23T05:30:05.115Z,2.33
2022-08-23T05:32:33.583Z,2.10
2022-08-23T05:35:00.851Z,2.10
2022-08-23T05:37:27.836Z,2.03
2022-08-23T05:39:54.543Z,1.90
2022-08-23T05:42:21.836Z,2.17
2022-08-23T05:44:48.516Z,2.05
2022-08-23T05:47:16.972Z,1.77
2022-08-23T05:49:45.525Z,2.15
2022-08-23T05:52:14.661Z,1.95
2022-08-23T05:54:41.873Z,2.13
2022-08-23T05:57:10.385Z,2.13
2022-08-23T05:59:39.669Z,2.05
2022-08-23T06:02:06.477Z,1.98
2022-08-23T06:04:33.318Z,2.10
2022-08-23T06:06:59.989Z,1.70
2022-08-23T06:09:27.149Z,1.75
2022-08-23T06:11:54.597Z,1.73
2022-08-23T06:14:21.657Z,1.67
2022-08-23T06:16:54.877Z,1.60
2022-08-23T06:19:23.666Z,1.38
2022-08-23T06:21:51.941Z,1.35
2022-08-23T06:24:20.086Z,1.05
2022-08-23T06:26:47.384Z,1.30
2022-08-23T06:29:18.657Z,1.40
2022-08-23T06:31:49.565Z,1.20
2022-08-23T06:34:36.009Z,1.42
2022-08-23T06:37:07.485Z,1.55
2022-08-23T06:39:38.673Z,1.25
2022-08-23T06:42:34.359Z,1.20
2022-08-23T06:44:55.663Z,1.40
2022-08-23T06:47:23.143Z,1.50
2022-08-23T06:49:51.114Z,1.33
2022-08-23T06:52:25.461Z,1.27
2022-08-23T06:54:52.421Z,1.40
2022-08-23T06:57:20.461Z,1.50
2022-08-23T06:59:49.741Z,1.50
2022-08-23T07:02:16.698Z,1.30
2022-08-23T07:04:43.591Z,1.30
2022-08-23T07:07:12.352Z,1.23
2022-08-23T07:09:41.053Z,1.42
2022-08-23T07:12:08.910Z,1.10
2022-08-23T07:14:37.125Z,1.40
2022-08-23T07:17:04.576Z,1.27
2022-08-23T07:19:34.330Z,1.40
2022-08-23T07:22:03.329Z,1.33
2022-08-23T07:24:33.583Z,1.33
2022-08-23T07:27:06.253Z,1.65
2022-08-23T07:29:34.013Z,1.13
2022-08-23T07:32:01.173Z,1.27
2022-08-23T07:34:28.768Z,1.42
2022-08-23T07:36:55.717Z,1.40
2022-08-23T07:39:23.690Z,1.40
2022-08-23T07:41:52.549Z,1.65
2022-08-23T07:44:20.047Z,1.33
2022-08-23T07:46:50.544Z,1.40
2022-08-23T07:49:17.847Z,1.42
2022-08-23T07:51:50.557Z,1.63
2022-08-23T07:54:19.408Z,1.30
2022-08-23T07:56:49.467Z,1.48
2022-08-23T07:59:16.282Z,1.20
2022-08-23T08:01:44.468Z,1.38
2022-08-23T08:04:12.588Z,1.17
2022-08-23T08:06:46.042Z,1.27
2022-08-23T08:09:15.223Z,1.10
2022-08-23T08:11:45.328Z,1.35
2022-08-23T08:14:12.676Z,1.00
2022-08-23T08:16:46.654Z,1.30
2022-08-23T08:19:16.887Z,0.90
2022-08-23T08:21:45.990Z,1.40
2022-08-23T08:24:16.327Z,1.00
2022-08-23T08:26:44.176Z,1.25
2022-08-23T08:29:12.483Z,1.23
2022-08-23T08:31:42.586Z,1.02
2022-08-23T08:34:09.927Z,1.23
2022-08-23T08:36:46.870Z,1.08
2022-08-23T08:39:18.845Z,1.30
2022-08-23T08:42:04.841Z,0.98
2022-08-23T08:44:42.214Z,2.15
2022-08-23T08:47:22.435Z,1.40
2022-08-23T08:50:01.289Z,1.35
2022-08-23T08:52:33.476Z,2.03
2022-08-23T08:55:20.622Z,3.85
2022-08-23T08:57:49.053Z,2.33
2022-08-23T09:00:21.526Z,1.95
2022-08-23T09:02:48.309Z,1.63
2022-08-23T09:05:21.365Z,2.67
2022-08-23T09:08:04.312Z,2.05
2022-08-23T09:11:11.107Z,1.30
2022-08-23T09:14:37.931Z,2.75
2022-08-23T09:17:31.069Z,3.20
2022-08-23T09:20:03.215Z,2.80
2022-08-23T09:22:47.739Z,2.10
2022-08-23T09:25:16.929Z,1.40
2022-08-23T09:27:45.730Z,1.52
2022-08-23T09:30:16.916Z,1.23
2022-08-23T09:32:46.061Z,1.33
2022-08-23T09:35:20.929Z,1.50
2022-08-23T09:37:50.163Z,1.50
2022-08-23T09:40:41.179Z,1.42
2022-08-23T09:43:13.827Z,1.27
2022-08-23T09:46:02.006Z,1.30
2022-08-23T09:48:42.441Z,1.67
2022-08-23T09:51:40.390Z,1.42
2022-08-23T09:54:34.986Z,1.30
2022-08-23T09:57:06.373Z,1.50
2022-08-23T09:59:47.836Z,1.80
2022-08-23T10:02:32.226Z,1.33
2022-08-23T10:05:07.293Z,1.77
2022-08-23T10:07:43.617Z,1.60
2022-08-23T10:10:24.925Z,1.50
2022-08-23T10:12:54.371Z,1.30
2022-08-23T10:15:56.210Z,1.33
2022-08-23T10:19:10.223Z,1.60
2022-08-23T10:21:44.173Z,1.65
2022-08-23T10:24:55.339Z,1.33
2022-08-23T10:28:03.973Z,1.60
2022-08-23T10:31:31.147Z,1.55
2022-08-23T10:34:35.619Z,1.50
2022-08-23T10:37:52.238Z,1.67
2022-08-23T10:40:58.294Z,1.92
2022-08-23T10:44:05.746Z,1.90
2022-08-23T10:46:41.810Z,1.90
2022-08-23T10:49:12.826Z,1.80
2022-08-23T10:51:47.594Z,1.70
2022-08-23T10:54:48.750Z,1.92
2022-08-23T10:57:20.294Z,1.63
2022-08-23T10:59:48.247Z,2.22
2022-08-23T11:03:15.769Z,2.00
2022-08-23T11:05:43.243Z,1.80
2022-08-23T11:08:30.042Z,2.00
2022-08-23T11:10:57.152Z,1.83
2022-08-23T11:13:29.386Z,2.08
2022-08-23T11:16:09.320Z,1.88
2022-08-23T11:18:43.309Z,2.22
2022-08-23T11:21:19.147Z,2.20
2022-08-23T11:24:12.254Z,1.92
2022-08-23T11:26:40.759Z,1.83
2022-08-23T11:29:07.331Z,1.90
2022-08-23T11:31:42.922Z,1.73
2022-08-23T11:34:40.903Z,1.83
2022-08-23T11:37:19.535Z,2.35
2022-08-23T11:40:07.322Z,3.00
2022-08-23T11:42:40.058Z,2.17
2022-08-23T11:45:38.127Z,2.20
2022-08-23T11:48:43.477Z,1.98
2022-08-23T11:51:42.322Z,1.90
2022-08-23T11:54:27.546Z,2.10
2022-08-23T11:57:29.246Z,2.20
2022-08-23T12:00:29.228Z,2.38
2022-08-23T12:03:17.771Z,1.85
2022-08-23T12:05:53.971Z,1.83
2022-08-23T12:08:21.870Z,2.13
2022-08-23T12:10:48.450Z,2.38
2022-08-23T12:13:21.206Z,2.20
2022-08-23T12:16:16.233Z,2.30
2022-08-23T12:18:54.406Z,2.10
2022-08-23T12:21:39.323Z,2.03
2022-08-23T12:24:30.638Z,1.75
2022-08-23T12:27:04.861Z,2.08
2022-08-23T12:29:54.162Z,2.08
2022-08-23T12:33:11.670Z,2.03
2022-08-23T12:35:50.215Z,1.92
2022-08-23T12:39:01.782Z,2.10
2022-08-23T12:41:48.842Z,1.90
2022-08-23T12:44:21.534Z,2.17
2022-08-23T12:46:50.452Z,1.80
2022-08-23T12:49:29.588Z,2.33
2022-08-23T12:52:00.706Z,2.47
2022-08-23T12:54:37.559Z,1.90
2022-08-23T12:57:11.631Z,2.20
2022-08-23T13:00:17.186Z,2.50
2022-08-23T13:03:21.243Z,2.13
2022-08-23T13:06:01.992Z,2.42
2022-08-23T13:08:36.222Z,2.13
2022-08-23T13:11:08.372Z,2.20
2022-08-23T13:13:39.637Z,2.13
2022-08-23T13:16:45.863Z,2.13
2022-08-23T13:19:32.158Z,2.13
2022-08-23T13:22:27.805Z,1.98
2022-08-23T13:25:29.681Z,2.25
2022-08-23T13:28:05.354Z,2.00
2022-08-23T13:30:37.119Z,2.28
2022-08-23T13:33:10.713Z,2.10
2022-08-23T13:35:45.634Z,2.13
2022-08-23T13:38:30.338Z,2.17
2022-08-23T13:41:08.782Z,2.20
2022-08-23T13:43:44.600Z,1.92
2022-08-23T13:46:26.992Z,2.25
2022-08-23T13:49:27.219Z,2.15
2022-08-23T13:52:11.948Z,1.80
2022-08-23T13:54:45.766Z,2.15
2022-08-23T13:57:18.542Z,2.20
2022-08-23T13:59:54.314Z,1.63
2022-08-23T14:02:24.837Z,2.20
2022-08-23T14:04:51.865Z,2.33
2022-08-23T14:07:19.316Z,2.05
2022-08-23T14:09:45.970Z,2.20
2022-08-23T14:12:23.054Z,2.00
2022-08-23T14:14:50.556Z,2.13
2022-08-23T14:17:20.519Z,1.77
2022-08-23T14:20:33.019Z,2.10
2022-08-23T14:22:36.018Z,2.15
2022-08-23T14:25:03.958Z,1.92
2022-08-23T14:27:30.894Z,1.92
2022-08-23T14:29:57.775Z,1.90
2022-08-23T14:32:24.487Z,1.90
2022-08-23T14:34:52.300Z,1.92
2022-08-23T14:38:02.810Z,1.85
2022-08-23T14:40:06.752Z,2.08
2022-08-23T14:42:33.511Z,1.90
2022-08-23T14:45:00.328Z,1.80
2022-08-23T14:47:27.712Z,1.90
2022-08-23T14:49:54.667Z,2.45
2022-08-23T14:52:23.355Z,1.75
2022-08-23T14:54:50.587Z,2.03
2022-08-23T14:57:17.347Z,1.75
2022-08-23T14:59:44.077Z,1.92
2022-08-23T15:02:13.419Z,2.03
2022-08-23T15:04:42.032Z,2.05
2022-08-23T15:07:24.020Z,2.20
2022-08-23T15:09:54.623Z,2.00
2022-08-23T15:15:17.475Z,1.90
2022-08-23T15:17:58.555Z,1.80
2022-08-23T15:20:30.963Z,2.00
2022-08-23T15:22:57.972Z,1.90
2022-08-23T15:25:26.861Z,1.90
2022-08-23T15:27:54.092Z,1.92
2022-08-23T15:30:23.312Z,1.70
2022-08-23T15:32:52.514Z,1.88
2022-08-23T15:35:25.206Z,1.50
2022-08-23T15:37:54.361Z,1.90
2022-08-23T15:40:21.159Z,1.98
2022-08-23T15:42:47.879Z,2.13
2022-08-23T15:45:14.883Z,1.88
2022-08-23T15:47:50.063Z,1.85
2022-08-23T15:50:20.656Z,1.65
2022-08-23T15:52:47.488Z,1.70
2022-08-23T15:55:14.359Z,1.73
2022-08-23T15:57:48.033Z,2.20
2022-08-23T16:00:18.089Z,1.77
2022-08-23T16:03:06.455Z,1.88
2022-08-23T16:05:31.991Z,1.60
2022-08-23T16:07:59.743Z,1.80
2022-08-23T16:10:27.543Z,1.80
2022-08-23T16:12:55.445Z,1.75
2022-08-23T16:15:22.155Z,1.90
2022-08-23T16:17:48.970Z,1.70
2022-08-23T16:20:15.705Z,1.75
2022-08-23T16:22:42.407Z,1.63
2022-08-23T16:25:09.879Z,1.67
2022-08-23T16:27:37.051Z,1.70
2022-08-23T16:30:05.871Z,1.60
2022-08-23T16:32:32.511Z,1.70
2022-08-23T16:34:59.143Z,1.80
2022-08-23T16:37:25.796Z,1.73
2022-08-23T16:39:53.076Z,1.92
2022-08-23T16:42:19.939Z,1.58
2022-08-23T16:44:46.879Z,1.75
2022-08-23T16:47:14.556Z,1.50
2022-08-23T16:49:43.024Z,1.80
2022-08-23T16:52:10.620Z,1.83
2022-08-23T16:54:38.543Z,1.63
2022-08-23T16:57:05.916Z,1.67
2022-08-23T16:59:36.122Z,1.85
2022-08-23T17:02:10.872Z,1.70
2022-08-23T17:04:38.091Z,1.70
2022-08-23T17:07:04.861Z,1.70
2022-08-23T17:09:31.567Z,2.03
2022-08-23T17:11:58.453Z,2.22
2022-08-23T17:14:26.060Z,1.85
2022-08-23T17:16:53.156Z,1.70
2022-08-23T17:19:19.973Z,2.22
2022-08-23T17:21:46.859Z,1.48
2022-08-23T17:24:13.700Z,1.80
2022-08-23T17:26:40.463Z,1.50
2022-08-23T17:29:09.249Z,1.75
2022-08-23T17:31:37.670Z,1.40
2022-08-23T17:34:06.699Z,2.25
2022-08-23T17:36:54.791Z,1.65
2022-08-23T17:39:27.248Z,2.00
2022-08-23T17:41:58.538Z,2.00
2022-08-23T17:44:25.335Z,2.22
2022-08-23T17:46:52.909Z,2.10
2022-08-23T17:49:20.304Z,1.85
2022-08-23T17:51:47.480Z,2.17
2022-08-23T17:54:16.389Z,2.03
2022-08-23T17:56:49.926Z,1.85
2022-08-23T17:59:20.887Z,1.90
2022-08-23T18:01:47.691Z,2.15
2022-08-23T18:04:14.727Z,2.13
2022-08-23T18:06:41.499Z,2.20
2022-08-23T18:09:08.408Z,1.95
2022-08-23T18:11:35.652Z,2.22
2022-08-23T18:14:03.179Z,1.70
2022-08-23T18:16:34.974Z,1.90
2022-08-23T18:19:04.762Z,1.90
2022-08-23T18:21:31.408Z,1.80
2022-08-23T18:23:58.890Z,1.95
2022-08-23T18:26:44.877Z,1.80
2022-08-23T18:29:12.173Z,2.08
2022-08-23T18:31:42.078Z,2.30
2022-08-23T18:34:10.836Z,1.85
2022-08-23T18:36:37.881Z,1.70
2022-08-23T18:39:07.219Z,1.95
2022-08-23T18:41:34.447Z,2.10
2022-08-23T18:44:01.892Z,1.80
2022-08-23T18:46:34.769Z,2.13
2022-08-23T18:49:02.393Z,1.80
2022-08-23T18:51:29.755Z,1.95
2022-08-23T18:53:56.907Z,2.10
2022-08-23T18:56:24.336Z,1.83
2022-08-23T18:58:51.512Z,1.83
2022-08-23T19:01:28.559Z,2.00
2022-08-23T19:03:57.844Z,2.17
2022-08-23T19:06:24.974Z,1.80
2022-08-23T19:08:52.850Z,1.90
2022-08-23T19:11:20.605Z,1.88
2022-08-23T19:13:47.628Z,2.17
2022-08-23T19:16:15.517Z,2.42
2022-08-23T19:18:44.975Z,2.00
2022-08-23T19:21:14.521Z,2.00
2022-08-23T19:23:42.140Z,2.17
2022-08-23T19:26:10.897Z,1.90
2022-08-23T19:28:38.836Z,1.80
2022-08-23T19:31:06.099Z,1.90
2022-08-23T19:33:32.858Z,2.63
2022-08-23T19:35:59.684Z,1.70
2022-08-23T19:38:27.713Z,1.98
2022-08-23T19:40:56.541Z,1.77
2022-08-23T19:43:24.196Z,2.00
2022-08-23T19:46:05.933Z,1.98
2022-08-23T19:48:32.913Z,1.92
2022-08-23T19:50:59.564Z,1.90
2022-08-23T19:53:26.248Z,1.88
2022-08-23T19:55:53.106Z,1.90
2022-08-23T19:58:19.764Z,2.30
2022-08-23T20:00:46.430Z,2.20
2022-08-23T20:03:13.259Z,1.90
2022-08-23T20:05:39.963Z,1.73
2022-08-23T20:08:07.355Z,2.10
2022-08-23T20:10:34.040Z,2.08
2022-08-23T20:13:01.013Z,2.22
2022-08-23T20:15:29.068Z,2.00
2022-08-23T20:17:56.575Z,2.50
2022-08-23T20:20:23.195Z,2.15
2022-08-23T20:23:18.313Z,2.38
2022-08-23T20:25:44.942Z,1.95
2022-08-23T20:28:11.655Z,1.98
2022-08-23T20:30:38.466Z,2.20
2022-08-23T20:33:05.178Z,2.17
2022-08-23T20:35:32.062Z,2.10
2022-08-23T20:37:58.868Z,2.13
2022-08-23T20:40:25.929Z,2.53
2022-08-23T20:42:52.695Z,2.15
2022-08-23T20:45:20.014Z,2.13
2022-08-23T20:47:46.722Z,2.33
2022-08-23T20:50:13.484Z,2.10
2022-08-23T20:52:40.302Z,2.25
2022-08-23T20:55:10.709Z,1.90
2022-08-23T20:57:38.808Z,2.22
2022-08-23T21:00:08.966Z,2.35
2022-08-23T21:02:35.778Z,2.10
2022-08-23T21:05:06.396Z,2.58
2022-08-23T21:07:33.331Z,2.28
2022-08-23T21:10:00.008Z,2.13
2022-08-23T21:12:26.639Z,1.95
2022-08-23T21:14:55.230Z,2.20
2022-08-23T21:17:21.858Z,2.13
2022-08-23T21:19:48.506Z,2.38
2022-08-23T21:22:15.154Z,2.00
2022-08-23T21:24:41.979Z,2.70
2022-08-23T21:27:09.531Z,2.15
2022-08-23T21:29:37.608Z,2.33
2022-08-23T21:32:04.771Z,2.05
2022-08-23T21:34:31.418Z,2.15
2022-08-23T21:36:58.128Z,2.28
2022-08-23T21:39:24.763Z,1.98
2022-08-23T21:41:51.470Z,2.13
2022-08-23T21:44:20.979Z,2.15
2022-08-23T21:46:48.529Z,2.17
2022-08-23T21:49:16.137Z,2.22
2022-08-23T21:51:43.894Z,1.90
2022-08-23T21:54:12.781Z,2.30
2022-08-23T21:56:40.595Z,2.35
2022-08-23T21:59:11.067Z,2.05
2022-08-23T22:01:38.972Z,2.10
2022-08-23T22:04:10.032Z,2.40
2022-08-23T22:06:38.615Z,2.17
2022-08-23T22:09:09.077Z,2.53
2022-08-23T22:11:41.557Z,2.05
2022-08-23T22:14:14.908Z,2.35
2022-08-23T22:16:43.987Z,2.28
2022-08-23T22:19:12.880Z,2.40
2022-08-23T22:21:39.796Z,2.05
2022-08-23T22:24:07.049Z,2.30
2022-08-23T22:26:34.362Z,2.58
2022-08-23T22:29:01.021Z,2.65
2022-08-23T22:31:28.524Z,2.47
2022-08-23T22:33:55.243Z,2.20
2022-08-23T22:36:24.037Z,2.35
2022-08-23T22:38:51.737Z,2.30
2022-08-23T22:41:23.929Z,2.13
2022-08-23T22:43:54.219Z,2.15
2022-08-23T22:46:22.958Z,2.33
2022-08-23T22:48:50.099Z,2.47
2022-08-23T22:51:22.032Z,2.53
2022-08-23T22:53:57.991Z,2.35
2022-08-23T22:56:32.898Z,2.10
2022-08-23T22:58:59.778Z,2.38
2022-08-23T23:01:37.656Z,2.50
2022-08-23T23:04:10.687Z,2.10
2022-08-23T23:06:37.894Z,2.10
2022-08-23T23:09:07.807Z,2.50
2022-08-23T23:11:35.867Z,2.25
2022-08-23T23:14:05.081Z,2.17
2022-08-23T23:16:31.994Z,2.63
2022-08-23T23:19:18.117Z,2.35
2022-08-23T23:21:52.586Z,2.58
2022-08-23T23:24:24.814Z,2.08
2022-08-23T23:26:51.821Z,1.88
2022-08-23T23:29:19.277Z,2.20
2022-08-23T23:31:46.165Z,2.38
2022-08-23T23:34:13.073Z,2.47
2022-08-23T23:36:40.961Z,2.03
2022-08-23T23:39:10.722Z,2.65
2022-08-23T23:41:38.170Z,2.60
2022-08-23T23:44:05.828Z,2.15
2022-08-23T23:46:32.611Z,2.13
2022-08-23T23:48:59.317Z,1.92
2022-08-23T23:51:29.478Z,2.30
2022-08-23T23:53:59.505Z,2.60
2022-08-23T23:56:29.655Z,2.20
2022-08-23T23:58:58.460Z,2.30
